PANT Airport Information

Runway Information
Runway 02 Length 5709 ft width 150 ft
Elevation 93 ft Threshold 0 ft Heading 47
Runway 20 Length 5709 ft Width 150 ft
Elevation 94 ft Threshold 0 ft Heading 227
Runway 12 Length 7493 ft width 150 ft
Elevation 119 ft Threshold 0 ft Heading 148
Runway 30 Length 7493 ft Width 150 ft
Elevation 85 ft Threshold 0 ft Heading 328
Airport Frequencies
Type ASOS Name ASOS Frequency 135.75 MHZ
Type CTAF Name CTAF Frequency 122.9 MHZ
Type FSS Name KETCHIKAN Frequency 122.4 MHZ
Airport Navaids
Type VOR-DME Name Annette Island Frequency 117100 KHZ
Type NDB Name Nichols Frequency 266 KHZ
Airport Weather Information & NOTAM
ADDS - METARS form results

(1032 UTC 21 April 2019)
Data provider http://aviationweather.gov/metar/data/
 
METAR text: PANT 210953Z AUTO 14016G22KT 10SM -RA BKN022 OVC029 06/04 A2996 RMK PK WND 15026/0906 SLP145 P0003 T00610039 TSNO $ VIA AUTODIAL
Conditions at: PANT (ANNETTE ISLAND , AK, US) observed 0953 UTC 21 April 2019
Temperature: 6.1°C (43°F)
Dewpoint: 3.9°C (39°F) [RH = 86%]
Pressure (altimeter): 29.96 inches Hg (1014.6 mb)
[Sea-level pressure: 1014.5 mb]
Winds: from the SE (140 degrees) at 18 MPH (16 knots; 8.2 m/s)
gusting to 25 MPH (22 knots; 11.3 m/s)
Visibility: 10 or more miles (16+ km)
Ceiling: 2200 feet AGL
Clouds: broken clouds at 2200 feet AGL
overcast cloud deck at 2900 feet AGL
Weather: -RA  (light rain)
SOME DATA ABOVE MAY BE INACCURATE!!!
"$" is an indication the sensor requires maintenance